EDDT/TXL METAR and TAF weather

Enter ICAO airport designator
Station Type Date Time Source
EDDT METAR 2018/07/21 22:50 UTC NOAA

EDDT 212250Z 08005KT 050V110 CAVOK 21/11 Q1012


Station Type Date Time Source
EDDT Decoded METAR 2018/07/21 22:50 UTC NOAA

Berlin-Tegel, Germany (EDDT) 52-34N 013-19E 37M
Jul 21, 2018 - 06:50 PM EDT / 2018.07.21 2250 UTC
Wind: from the E (080 degrees) at 6 MPH (5 KT) (direction variable):0
Visibility: greater than 7 mile(s):0
Temperature: 69 F (21 C)
Dew Point: 51 F (11 C)
Relative Humidity: 52%
Pressure (altimeter): 29.88 in. Hg (1012 hPa)
ob: EDDT 212250Z 08005KT 050V110 CAVOK 21/11 Q1012
cycle: 23

Station Type Date Time Source
EDDT TAF 2018/07/21 18:27 UTC NOAA

TAF EDDT 211700Z 2118/2218 03005KT CAVOK
TEMPO 2121/2207 VRB03KT


Example: see airport list